sensor_id;sensor_type;location;lat;lon;timestamp;P1;durP1;ratioP1;P2;durP2;ratioP2
10934;SDS011;5520;45.752;4.874;2022-09-24T00:01:39;3.27;;;1.93;;
10934;SDS011;5520;45.752;4.874;2022-09-24T00:04:08;4.00;;;2.17;;
10934;SDS011;5520;45.752;4.874;2022-09-24T00:06:37;3.07;;;2.00;;
10934;SDS011;5520;45.752;4.874;2022-09-24T00:09:06;2.73;;;2.20;;
10934;SDS011;5520;45.752;4.874;2022-09-24T00:11:34;3.10;;;2.43;;
10934;SDS011;5520;45.752;4.874;2022-09-24T00:14:04;2.43;;;2.20;;
10934;SDS011;5520;45.752;4.874;2022-09-24T00:16:32;3.77;;;2.47;;
10934;SDS011;5520;45.752;4.874;2022-09-24T00:19:00;4.43;;;2.20;;
10934;SDS011;5520;45.752;4.874;2022-09-24T00:21:29;4.77;;;2.17;;
10934;SDS011;5520;45.752;4.874;2022-09-24T00:23:58;2.03;;;1.93;;
10934;SDS011;5520;45.752;4.874;2022-09-24T00:26:27;4.00;;;2.17;;
10934;SDS011;5520;45.752;4.874;2022-09-24T00:29:15;2.27;;;2.10;;
10934;SDS011;5520;45.752;4.874;2022-09-24T00:31:43;2.43;;;2.23;;
10934;SDS011;5520;45.752;4.874;2022-09-24T00:34:11;4.07;;;2.40;;
10934;SDS011;5520;45.752;4.874;2022-09-24T00:36:39;4.20;;;2.23;;
10934;SDS011;5520;45.752;4.874;2022-09-24T00:39:07;3.97;;;2.73;;
10934;SDS011;5520;45.752;4.874;2022-09-24T00:41:35;5.30;;;2.77;;
10934;SDS011;5520;45.752;4.874;2022-09-24T00:46:48;3.70;;;2.33;;
10934;SDS011;5520;45.752;4.874;2022-09-24T00:49:17;2.60;;;2.40;;
10934;SDS011;5520;45.752;4.874;2022-09-24T00:51:46;3.13;;;2.83;;
10934;SDS011;5520;45.752;4.874;2022-09-24T00:54:16;2.97;;;2.73;;
10934;SDS011;5520;45.752;4.874;2022-09-24T00:56:45;4.13;;;2.73;;
10934;SDS011;5520;45.752;4.874;2022-09-24T00:59:14;8.90;;;4.23;;
10934;SDS011;5520;45.752;4.874;2022-09-24T01:01:43;6.70;;;4.33;;
10934;SDS011;5520;45.752;4.874;2022-09-24T01:04:13;8.23;;;4.23;;
10934;SDS011;5520;45.752;4.874;2022-09-24T01:06:41;6.27;;;4.40;;
10934;SDS011;5520;45.752;4.874;2022-09-24T01:09:09;5.17;;;4.43;;
10934;SDS011;5520;45.752;4.874;2022-09-24T01:11:40;7.83;;;4.20;;
10934;SDS011;5520;45.752;4.874;2022-09-24T01:16:55;5.33;;;4.30;;
10934;SDS011;5520;45.752;4.874;2022-09-24T01:19:32;8.93;;;4.10;;
10934;SDS011;5520;45.752;4.874;2022-09-24T01:22:08;5.13;;;4.27;;
10934;SDS011;5520;45.752;4.874;2022-09-24T01:24:45;6.23;;;4.40;;
10934;SDS011;5520;45.752;4.874;2022-09-24T01:27:16;5.43;;;4.60;;
10934;SDS011;5520;45.752;4.874;2022-09-24T01:29:49;4.90;;;4.20;;
10934;SDS011;5520;45.752;4.874;2022-09-24T01:32:21;5.07;;;4.30;;
10934;SDS011;5520;45.752;4.874;2022-09-24T01:34:58;5.50;;;4.00;;
10934;SDS011;5520;45.752;4.874;2022-09-24T01:37:28;5.37;;;4.87;;
10934;SDS011;5520;45.752;4.874;2022-09-24T01:39:59;6.83;;;4.60;;
10934;SDS011;5520;45.752;4.874;2022-09-24T01:42:28;7.73;;;5.43;;
10934;SDS011;5520;45.752;4.874;2022-09-24T01:44:58;7.80;;;4.63;;
10934;SDS011;5520;45.752;4.874;2022-09-24T01:47:28;9.60;;;5.37;;
10934;SDS011;5520;45.752;4.874;2022-09-24T01:50:00;6.27;;;4.30;;
10934;SDS011;5520;45.752;4.874;2022-09-24T01:52:29;5.30;;;4.50;;
10934;SDS011;5520;45.752;4.874;2022-09-24T01:54:58;5.13;;;4.27;;
10934;SDS011;5520;45.752;4.874;2022-09-24T01:57:26;4.10;;;3.70;;
10934;SDS011;5520;45.752;4.874;2022-09-24T01:59:58;7.17;;;4.13;;
10934;SDS011;5520;45.752;4.874;2022-09-24T02:02:29;4.13;;;3.73;;
10934;SDS011;5520;45.752;4.874;2022-09-24T02:05:02;5.83;;;3.97;;
10934;SDS011;5520;45.752;4.874;2022-09-24T02:07:34;4.63;;;4.00;;
10934;SDS011;5520;45.752;4.874;2022-09-24T02:10:02;4.20;;;3.80;;
10934;SDS011;5520;45.752;4.874;2022-09-24T02:12:31;5.40;;;4.43;;
10934;SDS011;5520;45.752;4.874;2022-09-24T02:15:03;4.40;;;4.00;;
10934;SDS011;5520;45.752;4.874;2022-09-24T02:17:34;6.80;;;4.40;;
10934;SDS011;5520;45.752;4.874;2022-09-24T02:20:04;4.50;;;4.10;;
10934;SDS011;5520;45.752;4.874;2022-09-24T02:22:33;4.90;;;4.20;;
10934;SDS011;5520;45.752;4.874;2022-09-24T02:25:03;6.60;;;3.73;;
10934;SDS011;5520;45.752;4.874;2022-09-24T02:27:31;4.70;;;4.10;;
10934;SDS011;5520;45.752;4.874;2022-09-24T02:30:02;6.00;;;3.47;;
10934;SDS011;5520;45.752;4.874;2022-09-24T02:32:30;5.07;;;4.00;;
10934;SDS011;5520;45.752;4.874;2022-09-24T02:35:00;6.33;;;4.20;;
10934;SDS011;5520;45.752;4.874;2022-09-24T02:37:32;6.10;;;4.03;;
10934;SDS011;5520;45.752;4.874;2022-09-24T02:40:00;4.53;;;3.97;;
10934;SDS011;5520;45.752;4.874;2022-09-24T02:42:29;4.77;;;3.93;;
10934;SDS011;5520;45.752;4.874;2022-09-24T02:44:57;4.90;;;4.40;;
10934;SDS011;5520;45.752;4.874;2022-09-24T02:47:27;5.00;;;3.73;;
10934;SDS011;5520;45.752;4.874;2022-09-24T02:49:55;5.13;;;4.27;;
10934;SDS011;5520;45.752;4.874;2022-09-24T02:52:23;5.20;;;4.40;;
10934;SDS011;5520;45.752;4.874;2022-09-24T02:54:51;5.10;;;4.70;;
10934;SDS011;5520;45.752;4.874;2022-09-24T02:57:19;8.57;;;5.23;;
10934;SDS011;5520;45.752;4.874;2022-09-24T02:59:47;8.33;;;5.27;;
10934;SDS011;5520;45.752;4.874;2022-09-24T03:02:15;5.67;;;5.17;;
10934;SDS011;5520;45.752;4.874;2022-09-24T03:04:45;7.17;;;5.37;;
10934;SDS011;5520;45.752;4.874;2022-09-24T03:07:13;9.43;;;6.63;;
10934;SDS011;5520;45.752;4.874;2022-09-24T03:09:41;9.83;;;6.17;;
10934;SDS011;5520;45.752;4.874;2022-09-24T03:12:09;7.67;;;5.30;;
10934;SDS011;5520;45.752;4.874;2022-09-24T03:14:38;6.63;;;5.60;;
10934;SDS011;5520;45.752;4.874;2022-09-24T03:17:06;7.00;;;5.07;;
10934;SDS011;5520;45.752;4.874;2022-09-24T03:19:33;7.97;;;5.10;;
10934;SDS011;5520;45.752;4.874;2022-09-24T03:22:03;6.77;;;5.23;;
10934;SDS011;5520;45.752;4.874;2022-09-24T03:24:31;6.07;;;5.47;;
10934;SDS011;5520;45.752;4.874;2022-09-24T03:26:59;7.33;;;5.83;;
10934;SDS011;5520;45.752;4.874;2022-09-24T03:29:26;7.50;;;5.23;;
10934;SDS011;5520;45.752;4.874;2022-09-24T03:32:08;6.90;;;5.33;;
10934;SDS011;5520;45.752;4.874;2022-09-24T03:34:36;6.43;;;5.83;;
10934;SDS011;5520;45.752;4.874;2022-09-24T03:37:05;7.33;;;6.03;;
10934;SDS011;5520;45.752;4.874;2022-09-24T03:39:34;8.37;;;6.07;;
10934;SDS011;5520;45.752;4.874;2022-09-24T03:42:02;10.20;;;6.43;;
10934;SDS011;5520;45.752;4.874;2022-09-24T03:44:30;7.43;;;6.00;;
10934;SDS011;5520;45.752;4.874;2022-09-24T03:46:57;7.10;;;6.33;;
10934;SDS011;5520;45.752;4.874;2022-09-24T03:49:25;6.50;;;5.93;;
10934;SDS011;5520;45.752;4.874;2022-09-24T03:51:53;5.97;;;5.40;;
10934;SDS011;5520;45.752;4.874;2022-09-24T03:54:23;5.40;;;4.90;;
10934;SDS011;5520;45.752;4.874;2022-09-24T03:56:51;4.93;;;4.27;;
10934;SDS011;5520;45.752;4.874;2022-09-24T03:59:19;3.20;;;2.90;;
10934;SDS011;5520;45.752;4.874;2022-09-24T04:01:47;2.07;;;1.50;;
10934;SDS011;5520;45.752;4.874;2022-09-24T04:04:15;1.80;;;1.60;;
10934;SDS011;5520;45.752;4.874;2022-09-24T04:06:42;1.70;;;1.60;;
10934;SDS011;5520;45.752;4.874;2022-09-24T04:09:10;2.40;;;2.20;;
10934;SDS011;5520;45.752;4.874;2022-09-24T04:11:40;3.63;;;2.93;;
10934;SDS011;5520;45.752;4.874;2022-09-24T04:14:08;4.43;;;3.60;;
10934;SDS011;5520;45.752;4.874;2022-09-24T04:16:40;7.60;;;4.87;;
10934;SDS011;5520;45.752;4.874;2022-09-24T04:19:08;5.23;;;4.73;;
10934;SDS011;5520;45.752;4.874;2022-09-24T04:21:36;7.23;;;5.60;;
10934;SDS011;5520;45.752;4.874;2022-09-24T04:24:04;5.97;;;5.47;;
10934;SDS011;5520;45.752;4.874;2022-09-24T04:26:32;7.80;;;5.83;;
10934;SDS011;5520;45.752;4.874;2022-09-24T04:29:02;5.63;;;5.03;;
10934;SDS011;5520;45.752;4.874;2022-09-24T04:31:30;5.17;;;4.20;;
10934;SDS011;5520;45.752;4.874;2022-09-24T04:33:59;7.20;;;6.30;;
10934;SDS011;5520;45.752;4.874;2022-09-24T04:36:27;5.47;;;4.17;;
10934;SDS011;5520;45.752;4.874;2022-09-24T04:38:57;3.73;;;3.43;;
10934;SDS011;5520;45.752;4.874;2022-09-24T04:41:25;4.17;;;3.77;;
10934;SDS011;5520;45.752;4.874;2022-09-24T04:43:55;4.17;;;3.50;;
10934;SDS011;5520;45.752;4.874;2022-09-24T04:46:24;5.50;;;3.40;;
10934;SDS011;5520;45.752;4.874;2022-09-24T04:48:53;4.83;;;3.53;;
10934;SDS011;5520;45.752;4.874;2022-09-24T04:51:21;4.33;;;3.60;;
10934;SDS011;5520;45.752;4.874;2022-09-24T04:53:49;3.27;;;3.03;;
10934;SDS011;5520;45.752;4.874;2022-09-24T04:56:17;4.27;;;2.80;;
10934;SDS011;5520;45.752;4.874;2022-09-24T04:58:48;4.17;;;2.83;;
10934;SDS011;5520;45.752;4.874;2022-09-24T05:01:16;2.70;;;2.50;;
10934;SDS011;5520;45.752;4.874;2022-09-24T05:03:46;2.47;;;2.20;;
10934;SDS011;5520;45.752;4.874;2022-09-24T05:06:14;4.20;;;2.87;;
10934;SDS011;5520;45.752;4.874;2022-09-24T05:08:42;2.60;;;2.40;;
10934;SDS011;5520;45.752;4.874;2022-09-24T05:11:10;3.23;;;2.70;;
10934;SDS011;5520;45.752;4.874;2022-09-24T05:13:39;2.80;;;2.53;;
10934;SDS011;5520;45.752;4.874;2022-09-24T05:16:10;3.67;;;2.93;;
10934;SDS011;5520;45.752;4.874;2022-09-24T05:18:38;4.03;;;3.10;;
10934;SDS011;5520;45.752;4.874;2022-09-24T05:21:08;4.07;;;2.73;;
10934;SDS011;5520;45.752;4.874;2022-09-24T05:23:36;2.70;;;2.47;;
10934;SDS011;5520;45.752;4.874;2022-09-24T05:26:04;4.53;;;2.70;;
10934;SDS011;5520;45.752;4.874;2022-09-24T05:28:49;3.23;;;2.53;;
10934;SDS011;5520;45.752;4.874;2022-09-24T05:31:17;3.63;;;2.67;;
10934;SDS011;5520;45.752;4.874;2022-09-24T05:33:45;3.60;;;2.90;;
10934;SDS011;5520;45.752;4.874;2022-09-24T05:36:15;2.87;;;2.67;;
10934;SDS011;5520;45.752;4.874;2022-09-24T05:38:44;5.17;;;3.20;;
10934;SDS011;5520;45.752;4.874;2022-09-24T05:41:12;6.40;;;3.50;;
10934;SDS011;5520;45.752;4.874;2022-09-24T05:43:40;5.00;;;2.83;;
10934;SDS011;5520;45.752;4.874;2022-09-24T05:46:08;3.57;;;3.20;;
10934;SDS011;5520;45.752;4.874;2022-09-24T05:48:36;2.90;;;2.70;;
10934;SDS011;5520;45.752;4.874;2022-09-24T05:51:04;3.13;;;2.83;;
10934;SDS011;5520;45.752;4.874;2022-09-24T05:53:34;10.90;;;9.90;;
10934;SDS011;5520;45.752;4.874;2022-09-24T05:56:02;3.73;;;3.20;;
10934;SDS011;5520;45.752;4.874;2022-09-24T05:58:30;4.13;;;3.33;;
10934;SDS011;5520;45.752;4.874;2022-09-24T06:00:58;4.80;;;3.27;;
10934;SDS011;5520;45.752;4.874;2022-09-24T06:03:26;3.63;;;3.17;;
10934;SDS011;5520;45.752;4.874;2022-09-24T06:05:55;4.90;;;3.60;;
10934;SDS011;5520;45.752;4.874;2022-09-24T06:08:25;4.03;;;3.07;;
10934;SDS011;5520;45.752;4.874;2022-09-24T06:10:57;3.60;;;3.30;;
10934;SDS011;5520;45.752;4.874;2022-09-24T06:13:25;3.30;;;3.10;;
10934;SDS011;5520;45.752;4.874;2022-09-24T06:15:58;4.47;;;3.17;;
10934;SDS011;5520;45.752;4.874;2022-09-24T06:18:26;4.90;;;2.93;;
10934;SDS011;5520;45.752;4.874;2022-09-24T06:20:54;4.17;;;3.07;;
10934;SDS011;5520;45.752;4.874;2022-09-24T06:23:22;3.10;;;2.90;;
10934;SDS011;5520;45.752;4.874;2022-09-24T06:25:50;4.17;;;3.20;;
10934;SDS011;5520;45.752;4.874;2022-09-24T06:28:19;5.83;;;3.77;;
10934;SDS011;5520;45.752;4.874;2022-09-24T06:30:47;3.57;;;3.10;;
10934;SDS011;5520;45.752;4.874;2022-09-24T06:33:15;4.13;;;3.73;;
10934;SDS011;5520;45.752;4.874;2022-09-24T06:35:45;5.80;;;3.87;;
10934;SDS011;5520;45.752;4.874;2022-09-24T06:38:14;4.37;;;3.57;;
10934;SDS011;5520;45.752;4.874;2022-09-24T06:40:43;4.70;;;3.40;;
10934;SDS011;5520;45.752;4.874;2022-09-24T06:43:12;5.60;;;3.67;;
10934;SDS011;5520;45.752;4.874;2022-09-24T06:45:42;6.57;;;3.90;;
10934;SDS011;5520;45.752;4.874;2022-09-24T06:48:11;8.13;;;3.70;;
10934;SDS011;5520;45.752;4.874;2022-09-24T06:50:40;6.97;;;4.07;;
10934;SDS011;5520;45.752;4.874;2022-09-24T06:53:09;4.37;;;3.97;;
10934;SDS011;5520;45.752;4.874;2022-09-24T06:55:37;3.97;;;3.67;;
10934;SDS011;5520;45.752;4.874;2022-09-24T06:58:06;5.07;;;4.57;;
10934;SDS011;5520;45.752;4.874;2022-09-24T07:00:34;6.00;;;4.23;;
10934;SDS011;5520;45.752;4.874;2022-09-24T07:03:04;5.30;;;4.70;;
10934;SDS011;5520;45.752;4.874;2022-09-24T07:05:32;6.57;;;4.60;;
10934;SDS011;5520;45.752;4.874;2022-09-24T07:08:08;6.80;;;5.33;;
10934;SDS011;5520;45.752;4.874;2022-09-24T07:10:36;6.27;;;5.13;;
10934;SDS011;5520;45.752;4.874;2022-09-24T07:13:05;7.00;;;5.20;;
10934;SDS011;5520;45.752;4.874;2022-09-24T07:15:33;6.77;;;5.50;;
10934;SDS011;5520;45.752;4.874;2022-09-24T07:18:01;5.80;;;5.20;;
10934;SDS011;5520;45.752;4.874;2022-09-24T07:20:30;7.50;;;5.77;;
10934;SDS011;5520;45.752;4.874;2022-09-24T07:23:02;5.60;;;5.10;;
10934;SDS011;5520;45.752;4.874;2022-09-24T07:25:30;6.37;;;5.53;;
10934;SDS011;5520;45.752;4.874;2022-09-24T07:28:02;6.07;;;5.47;;
10934;SDS011;5520;45.752;4.874;2022-09-24T07:30:30;6.43;;;5.83;;
10934;SDS011;5520;45.752;4.874;2022-09-24T07:32:58;5.77;;;5.17;;
10934;SDS011;5520;45.752;4.874;2022-09-24T07:35:27;8.73;;;5.53;;
10934;SDS011;5520;45.752;4.874;2022-09-24T07:37:57;7.50;;;5.53;;
10934;SDS011;5520;45.752;4.874;2022-09-24T07:40:26;5.87;;;5.37;;
10934;SDS011;5520;45.752;4.874;2022-09-24T07:42:54;5.80;;;5.20;;
10934;SDS011;5520;45.752;4.874;2022-09-24T07:45:23;6.07;;;5.57;;
10934;SDS011;5520;45.752;4.874;2022-09-24T07:47:57;7.77;;;5.30;;
10934;SDS011;5520;45.752;4.874;2022-09-24T07:50:25;6.50;;;5.90;;
10934;SDS011;5520;45.752;4.874;2022-09-24T07:52:54;9.93;;;6.40;;
10934;SDS011;5520;45.752;4.874;2022-09-24T07:55:23;6.17;;;5.60;;
10934;SDS011;5520;45.752;4.874;2022-09-24T07:57:52;6.43;;;5.83;;
10934;SDS011;5520;45.752;4.874;2022-09-24T08:00:21;7.50;;;6.40;;
10934;SDS011;5520;45.752;4.874;2022-09-24T08:02:49;9.40;;;6.20;;
10934;SDS011;5520;45.752;4.874;2022-09-24T08:05:21;8.43;;;5.97;;
10934;SDS011;5520;45.752;4.874;2022-09-24T08:07:50;6.63;;;5.73;;
10934;SDS011;5520;45.752;4.874;2022-09-24T08:10:18;6.60;;;5.97;;
10934;SDS011;5520;45.752;4.874;2022-09-24T08:12:48;6.87;;;6.27;;
10934;SDS011;5520;45.752;4.874;2022-09-24T08:15:16;6.40;;;5.80;;
10934;SDS011;5520;45.752;4.874;2022-09-24T08:17:44;6.40;;;5.63;;
10934;SDS011;5520;45.752;4.874;2022-09-24T08:20:12;8.90;;;6.07;;
10934;SDS011;5520;45.752;4.874;2022-09-24T08:22:40;6.10;;;5.60;;
10934;SDS011;5520;45.752;4.874;2022-09-24T08:25:08;11.00;;;5.60;;
10934;SDS011;5520;45.752;4.874;2022-09-24T08:27:36;5.30;;;4.90;;
10934;SDS011;5520;45.752;4.874;2022-09-24T08:30:06;5.80;;;5.20;;
10934;SDS011;5520;45.752;4.874;2022-09-24T08:32:34;7.70;;;5.93;;
10934;SDS011;5520;45.752;4.874;2022-09-24T08:35:03;6.03;;;5.10;;
10934;SDS011;5520;45.752;4.874;2022-09-24T08:37:33;6.13;;;5.60;;
10934;SDS011;5520;45.752;4.874;2022-09-24T08:40:02;7.00;;;5.23;;
10934;SDS011;5520;45.752;4.874;2022-09-24T08:42:33;5.17;;;4.77;;
10934;SDS011;5520;45.752;4.874;2022-09-24T08:45:03;5.53;;;4.93;;
10934;SDS011;5520;45.752;4.874;2022-09-24T08:47:51;4.90;;;4.50;;
10934;SDS011;5520;45.752;4.874;2022-09-24T08:50:20;6.23;;;5.30;;
10934;SDS011;5520;45.752;4.874;2022-09-24T08:52:54;6.00;;;5.00;;
10934;SDS011;5520;45.752;4.874;2022-09-24T08:55:26;5.90;;;5.40;;
10934;SDS011;5520;45.752;4.874;2022-09-24T08:57:59;4.90;;;4.43;;
10934;SDS011;5520;45.752;4.874;2022-09-24T09:00:30;4.93;;;4.53;;
10934;SDS011;5520;45.752;4.874;2022-09-24T09:03:05;6.97;;;5.17;;
10934;SDS011;5520;45.752;4.874;2022-09-24T09:05:42;5.77;;;5.27;;
10934;SDS011;5520;45.752;4.874;2022-09-24T09:08:17;7.60;;;5.70;;
10934;SDS011;5520;45.752;4.874;2022-09-24T09:11:06;6.67;;;5.30;;
10934;SDS011;5520;45.752;4.874;2022-09-24T09:13:37;5.07;;;4.57;;
10934;SDS011;5520;45.752;4.874;2022-09-24T09:16:09;5.30;;;4.70;;
10934;SDS011;5520;45.752;4.874;2022-09-24T09:18:43;5.10;;;4.70;;
10934;SDS011;5520;45.752;4.874;2022-09-24T09:21:14;5.00;;;4.60;;
10934;SDS011;5520;45.752;4.874;2022-09-24T09:23:45;4.40;;;4.00;;
10934;SDS011;5520;45.752;4.874;2022-09-24T09:26:14;4.83;;;4.50;;
10934;SDS011;5520;45.752;4.874;2022-09-24T09:28:43;5.53;;;5.03;;
10934;SDS011;5520;45.752;4.874;2022-09-24T09:31:15;5.73;;;5.17;;
10934;SDS011;5520;45.752;4.874;2022-09-24T09:33:51;4.87;;;4.53;;
10934;SDS011;5520;45.752;4.874;2022-09-24T09:36:34;5.00;;;4.50;;
10934;SDS011;5520;45.752;4.874;2022-09-24T09:39:08;4.77;;;4.37;;
10934;SDS011;5520;45.752;4.874;2022-09-24T09:41:44;5.57;;;5.17;;
10934;SDS011;5520;45.752;4.874;2022-09-24T09:44:14;4.80;;;4.40;;
10934;SDS011;5520;45.752;4.874;2022-09-24T09:46:45;4.50;;;4.10;;
10934;SDS011;5520;45.752;4.874;2022-09-24T09:49:15;4.93;;;4.50;;
10934;SDS011;5520;45.752;4.874;2022-09-24T09:51:44;5.57;;;3.97;;
10934;SDS011;5520;45.752;4.874;2022-09-24T09:54:13;4.93;;;4.30;;
10934;SDS011;5520;45.752;4.874;2022-09-24T09:56:41;6.27;;;4.37;;
10934;SDS011;5520;45.752;4.874;2022-09-24T09:59:15;4.53;;;3.93;;
10934;SDS011;5520;45.752;4.874;2022-09-24T10:01:44;5.20;;;4.53;;
10934;SDS011;5520;45.752;4.874;2022-09-24T10:04:30;4.90;;;4.40;;
10934;SDS011;5520;45.752;4.874;2022-09-24T10:07:03;5.13;;;4.00;;
10934;SDS011;5520;45.752;4.874;2022-09-24T10:09:31;5.33;;;4.93;;
10934;SDS011;5520;45.752;4.874;2022-09-24T10:12:06;6.13;;;4.80;;
10934;SDS011;5520;45.752;4.874;2022-09-24T10:14:34;8.37;;;6.53;;
10934;SDS011;5520;45.752;4.874;2022-09-24T10:17:02;6.77;;;5.33;;
10934;SDS011;5520;45.752;4.874;2022-09-24T10:19:34;5.47;;;4.67;;
10934;SDS011;5520;45.752;4.874;2022-09-24T10:22:08;4.53;;;4.17;;
10934;SDS011;5520;45.752;4.874;2022-09-24T10:24:39;4.77;;;4.37;;
10934;SDS011;5520;45.752;4.874;2022-09-24T10:27:11;4.90;;;4.50;;
10934;SDS011;5520;45.752;4.874;2022-09-24T10:29:39;5.80;;;3.93;;
10934;SDS011;5520;45.752;4.874;2022-09-24T10:32:25;3.97;;;3.60;;
10934;SDS011;5520;45.752;4.874;2022-09-24T10:34:57;4.07;;;3.77;;
10934;SDS011;5520;45.752;4.874;2022-09-24T10:37:26;4.70;;;4.30;;
10934;SDS011;5520;45.752;4.874;2022-09-24T10:39:57;4.47;;;3.97;;
10934;SDS011;5520;45.752;4.874;2022-09-24T10:42:26;5.23;;;4.27;;
10934;SDS011;5520;45.752;4.874;2022-09-24T10:44:54;4.80;;;3.80;;
10934;SDS011;5520;45.752;4.874;2022-09-24T10:47:24;3.70;;;3.40;;
10934;SDS011;5520;45.752;4.874;2022-09-24T10:50:09;4.07;;;3.73;;
10934;SDS011;5520;45.752;4.874;2022-09-24T10:52:43;3.77;;;3.47;;
10934;SDS011;5520;45.752;4.874;2022-09-24T10:55:28;5.97;;;3.97;;
10934;SDS011;5520;45.752;4.874;2022-09-24T10:58:01;4.23;;;3.60;;
10934;SDS011;5520;45.752;4.874;2022-09-24T11:00:33;5.00;;;3.57;;
10934;SDS011;5520;45.752;4.874;2022-09-24T11:03:09;5.03;;;3.63;;
10934;SDS011;5520;45.752;4.874;2022-09-24T11:05:43;4.43;;;3.90;;
10934;SDS011;5520;45.752;4.874;2022-09-24T11:08:14;5.43;;;3.90;;
10934;SDS011;5520;45.752;4.874;2022-09-24T11:13:30;3.80;;;3.40;;
10934;SDS011;5520;45.752;4.874;2022-09-24T11:16:08;3.57;;;3.27;;
10934;SDS011;5520;45.752;4.874;2022-09-24T11:18:41;3.50;;;3.20;;
10934;SDS011;5520;45.752;4.874;2022-09-24T11:21:20;3.43;;;3.13;;
10934;SDS011;5520;45.752;4.874;2022-09-24T11:24:00;3.33;;;2.80;;
10934;SDS011;5520;45.752;4.874;2022-09-24T11:26:43;2.97;;;2.77;;
10934;SDS011;5520;45.752;4.874;2022-09-24T11:29:20;3.03;;;2.73;;
10934;SDS011;5520;45.752;4.874;2022-09-24T11:31:54;3.50;;;3.17;;
10934;SDS011;5520;45.752;4.874;2022-09-24T11:34:27;3.23;;;2.93;;
10934;SDS011;5520;45.752;4.874;2022-09-24T11:37:04;2.57;;;2.37;;
10934;SDS011;5520;45.752;4.874;2022-09-24T11:39:43;4.60;;;2.70;;
10934;SDS011;5520;45.752;4.874;2022-09-24T11:42:17;2.20;;;2.03;;
10934;SDS011;5520;45.752;4.874;2022-09-24T11:44:57;2.33;;;2.13;;
10934;SDS011;5520;45.752;4.874;2022-09-24T11:47:32;2.50;;;2.30;;
10934;SDS011;5520;45.752;4.874;2022-09-24T11:50:09;2.50;;;2.30;;
10934;SDS011;5520;45.752;4.874;2022-09-24T11:52:44;4.43;;;2.70;;
10934;SDS011;5520;45.752;4.874;2022-09-24T11:55:14;2.10;;;2.00;;
10934;SDS011;5520;45.752;4.874;2022-09-24T11:57:44;2.33;;;2.13;;
10934;SDS011;5520;45.752;4.874;2022-09-24T12:00:16;2.40;;;2.17;;
10934;SDS011;5520;45.752;4.874;2022-09-24T12:02:47;2.87;;;2.20;;
10934;SDS011;5520;45.752;4.874;2022-09-24T12:05:17;2.60;;;2.40;;
10934;SDS011;5520;45.752;4.874;2022-09-24T12:07:48;2.67;;;2.47;;
10934;SDS011;5520;45.752;4.874;2022-09-24T12:10:21;2.47;;;2.27;;
10934;SDS011;5520;45.752;4.874;2022-09-24T12:12:51;2.60;;;2.40;;
10934;SDS011;5520;45.752;4.874;2022-09-24T12:15:23;4.63;;;2.40;;
10934;SDS011;5520;45.752;4.874;2022-09-24T12:17:54;2.80;;;2.40;;
10934;SDS011;5520;45.752;4.874;2022-09-24T12:20:25;2.63;;;2.43;;
10934;SDS011;5520;45.752;4.874;2022-09-24T12:22:56;2.70;;;2.50;;
10934;SDS011;5520;45.752;4.874;2022-09-24T12:25:26;2.47;;;2.27;;
10934;SDS011;5520;45.752;4.874;2022-09-24T12:27:56;2.93;;;2.73;;
10934;SDS011;5520;45.752;4.874;2022-09-24T12:30:27;2.43;;;2.03;;
10934;SDS011;5520;45.752;4.874;2022-09-24T12:33:19;2.70;;;2.50;;
10934;SDS011;5520;45.752;4.874;2022-09-24T12:35:55;3.53;;;2.50;;
10934;SDS011;5520;45.752;4.874;2022-09-24T12:38:30;3.70;;;3.30;;
10934;SDS011;5520;45.752;4.874;2022-09-24T12:41:19;2.53;;;2.33;;
10934;SDS011;5520;45.752;4.874;2022-09-24T12:43:49;2.70;;;2.50;;
10934;SDS011;5520;45.752;4.874;2022-09-24T12:46:19;2.30;;;2.10;;
10934;SDS011;5520;45.752;4.874;2022-09-24T12:48:48;2.50;;;2.30;;
10934;SDS011;5520;45.752;4.874;2022-09-24T12:51:17;2.73;;;2.43;;
10934;SDS011;5520;45.752;4.874;2022-09-24T12:53:56;2.60;;;2.30;;
10934;SDS011;5520;45.752;4.874;2022-09-24T12:56:25;2.77;;;2.57;;
10934;SDS011;5520;45.752;4.874;2022-09-24T12:58:55;2.20;;;2.10;;
10934;SDS011;5520;45.752;4.874;2022-09-24T13:01:27;2.37;;;2.17;;
10934;SDS011;5520;45.752;4.874;2022-09-24T13:04:03;2.73;;;2.53;;
10934;SDS011;5520;45.752;4.874;2022-09-24T13:06:33;2.70;;;2.50;;
10934;SDS011;5520;45.752;4.874;2022-09-24T13:09:19;3.10;;;2.40;;
10934;SDS011;5520;45.752;4.874;2022-09-24T13:11:59;4.07;;;2.57;;
10934;SDS011;5520;45.752;4.874;2022-09-24T13:14:27;2.67;;;2.37;;
10934;SDS011;5520;45.752;4.874;2022-09-24T13:16:57;2.47;;;2.27;;
10934;SDS011;5520;45.752;4.874;2022-09-24T13:19:32;3.43;;;2.57;;
10934;SDS011;5520;45.752;4.874;2022-09-24T13:22:01;4.27;;;2.53;;
10934;SDS011;5520;45.752;4.874;2022-09-24T13:24:31;2.53;;;2.33;;
10934;SDS011;5520;45.752;4.874;2022-09-24T13:27:16;2.00;;;1.90;;
10934;SDS011;5520;45.752;4.874;2022-09-24T13:29:47;2.63;;;2.43;;
10934;SDS011;5520;45.752;4.874;2022-09-24T13:32:20;2.27;;;2.03;;
10934;SDS011;5520;45.752;4.874;2022-09-24T13:34:48;2.70;;;2.50;;
10934;SDS011;5520;45.752;4.874;2022-09-24T13:37:18;2.03;;;1.87;;
10934;SDS011;5520;45.752;4.874;2022-09-24T13:39:50;2.27;;;2.07;;
10934;SDS011;5520;45.752;4.874;2022-09-24T13:42:21;1.93;;;1.83;;
10934;SDS011;5520;45.752;4.874;2022-09-24T13:44:52;2.30;;;2.10;;
10934;SDS011;5520;45.752;4.874;2022-09-24T13:47:21;2.10;;;1.90;;
10934;SDS011;5520;45.752;4.874;2022-09-24T13:49:54;2.90;;;2.07;;
10934;SDS011;5520;45.752;4.874;2022-09-24T13:52:25;2.13;;;1.97;;
10934;SDS011;5520;45.752;4.874;2022-09-24T13:54:57;2.53;;;2.10;;
10934;SDS011;5520;45.752;4.874;2022-09-24T13:57:29;2.87;;;2.13;;
10934;SDS011;5520;45.752;4.874;2022-09-24T14:00:03;2.47;;;2.00;;
10934;SDS011;5520;45.752;4.874;2022-09-24T14:02:39;1.80;;;1.70;;
10934;SDS011;5520;45.752;4.874;2022-09-24T14:05:13;1.90;;;1.80;;
10934;SDS011;5520;45.752;4.874;2022-09-24T14:07:41;2.43;;;2.23;;
10934;SDS011;5520;45.752;4.874;2022-09-24T14:10:12;2.20;;;2.00;;
10934;SDS011;5520;45.752;4.874;2022-09-24T14:12:41;4.47;;;2.07;;
10934;SDS011;5520;45.752;4.874;2022-09-24T14:15:11;2.13;;;1.97;;
10934;SDS011;5520;45.752;4.874;2022-09-24T14:17:40;2.03;;;1.90;;
10934;SDS011;5520;45.752;4.874;2022-09-24T14:20:11;2.10;;;2.00;;
10934;SDS011;5520;45.752;4.874;2022-09-24T14:22:43;2.60;;;1.97;;
10934;SDS011;5520;45.752;4.874;2022-09-24T14:25:14;2.20;;;1.73;;
10934;SDS011;5520;45.752;4.874;2022-09-24T14:27:43;2.30;;;2.10;;
10934;SDS011;5520;45.752;4.874;2022-09-24T14:30:16;2.00;;;1.80;;
10934;SDS011;5520;45.752;4.874;2022-09-24T14:32:48;2.17;;;2.00;;
10934;SDS011;5520;45.752;4.874;2022-09-24T14:35:17;2.13;;;1.93;;
10934;SDS011;5520;45.752;4.874;2022-09-24T14:37:47;2.47;;;2.00;;
10934;SDS011;5520;45.752;4.874;2022-09-24T14:40:17;3.23;;;2.10;;
10934;SDS011;5520;45.752;4.874;2022-09-24T14:42:48;3.60;;;2.37;;
10934;SDS011;5520;45.752;4.874;2022-09-24T14:45:17;2.87;;;2.67;;
10934;SDS011;5520;45.752;4.874;2022-09-24T14:47:46;4.07;;;2.00;;
10934;SDS011;5520;45.752;4.874;2022-09-24T14:50:27;2.47;;;2.20;;
10934;SDS011;5520;45.752;4.874;2022-09-24T14:52:55;1.27;;;1.20;;
10934;SDS011;5520;45.752;4.874;2022-09-24T14:55:36;1.50;;;1.40;;
10934;SDS011;5520;45.752;4.874;2022-09-24T14:58:05;1.63;;;1.53;;
10934;SDS011;5520;45.752;4.874;2022-09-24T15:00:34;1.60;;;1.47;;
10934;SDS011;5520;45.752;4.874;2022-09-24T15:03:04;1.50;;;1.40;;
10934;SDS011;5520;45.752;4.874;2022-09-24T15:05:33;1.60;;;1.50;;
10934;SDS011;5520;45.752;4.874;2022-09-24T15:08:08;1.10;;;1.10;;
10934;SDS011;5520;45.752;4.874;2022-09-24T15:10:38;1.43;;;1.33;;
10934;SDS011;5520;45.752;4.874;2022-09-24T15:13:11;1.40;;;1.30;;
10934;SDS011;5520;45.752;4.874;2022-09-24T15:15:39;1.50;;;1.40;;
10934;SDS011;5520;45.752;4.874;2022-09-24T15:18:08;1.63;;;1.50;;
10934;SDS011;5520;45.752;4.874;2022-09-24T15:20:37;1.40;;;1.30;;
10934;SDS011;5520;45.752;4.874;2022-09-24T15:23:05;1.60;;;1.50;;
10934;SDS011;5520;45.752;4.874;2022-09-24T15:25:34;1.47;;;1.37;;
10934;SDS011;5520;45.752;4.874;2022-09-24T15:28:03;1.43;;;1.33;;
10934;SDS011;5520;45.752;4.874;2022-09-24T15:30:31;3.83;;;1.70;;